RJNY  Shizuhama Airport

Add Bookmark

Japan

Status
Operational
Latitude Longitude
34° 48' 46" N 138° 17' 52" E
34.812801 138.298004
Local (DST + 9) UTC (GMT + 9)
Jul 24, 2014 07:24 Jul 23, 2014 22:24
Sunrise-Sunset Local UTC
Begin Civil Twilight 04:20 19:20
Sunrise 04:49 19:49
Sunset 06:57 09:57
End Civil Twilight 07:25 10:25

Current Weather

METAR Observed VFR
RJNY 231749Z 05001KT 9999 FEW025 BKN150 BKN/// 25/24 Q1002 Wed, Jul 23, 2014 @ 17:49 UTC
(4 Hours, 35 Minutes ago)
Visual Flight Rules

Decoded METAR

Wind Visibility Clouds Conditions
050° at 1 kt (2 kph) 10 km or more
  • Few at 2,500' AGL
  • Broken at 15,000' AGL
  • No significant weather
Temperatures Readings Precipitation
Current Temp 25°C (77°F)
Dewpoint 24°C (75°F)
Humidity 94%
Altimeter 29.59"Hg
Sea Level Pressure 1002mb
Field Elevation 32.81'
None Recorded

Additional weather within a 92.6km radius of RJNY

Map ICAO Location METAR
rjns 10.2km W (259°) 11 hrs, 24 mins ago
RJAT 76.7km N (043°) 41 mins ago

24 Hour Weather History

Loading
-

24 Hour Weather Graphs

Loading
-

CheckWX.com is intended as a tool to help pilots better visualize weather data. It is not intended as a substitute for an official weather briefing obtained from a Flight Service Station. CheckWX.com does not meet the FAA requirements for an official pre-flight weather briefing. Therefore, it's important that pilots still call and obtain an official FSS pre-flight weather briefing.